createdAt,value
2022-10-26T00:00:27.241Z,8.52
2022-10-26T00:02:56.058Z,8.27
2022-10-26T00:05:24.643Z,8.15
2022-10-26T00:07:52.712Z,7.60
2022-10-26T00:10:22.003Z,8.65
2022-10-26T00:12:51.530Z,7.97
2022-10-26T00:15:20.911Z,9.05
2022-10-26T00:17:49.317Z,8.68
2022-10-26T00:20:17.427Z,8.35
2022-10-26T00:22:45.269Z,8.38
2022-10-26T00:25:12.924Z,8.48
2022-10-26T00:27:40.277Z,8.23
2022-10-26T00:30:08.137Z,7.78
2022-10-26T00:32:36.106Z,8.45
2022-10-26T00:35:15.819Z,8.18
2022-10-26T00:37:56.327Z,7.82
2022-10-26T00:40:28.796Z,7.55
2022-10-26T00:42:56.480Z,8.45
2022-10-26T00:45:29.845Z,8.00
2022-10-26T00:48:07.756Z,8.38
2022-10-26T00:50:42.961Z,9.25
2022-10-26T00:53:11.628Z,8.18
2022-10-26T00:55:45.797Z,8.35
2022-10-26T00:58:13.404Z,8.48
2022-10-26T01:00:42.560Z,8.40
2022-10-26T01:03:11.129Z,7.95
2022-10-26T01:05:42.138Z,7.95
2022-10-26T01:08:10.342Z,8.98
2022-10-26T01:10:40.218Z,8.68
2022-10-26T01:13:07.730Z,8.75
2022-10-26T01:15:46.889Z,8.75
2022-10-26T01:18:30.042Z,8.65
2022-10-26T01:20:57.753Z,9.32
2022-10-26T01:24:02.892Z,8.50
2022-10-26T01:27:09.581Z,9.00
2022-10-26T01:30:09.640Z,8.48
2022-10-26T01:32:52.848Z,8.63
2022-10-26T01:36:01.006Z,9.38
2022-10-26T01:39:03.073Z,9.32
2022-10-26T01:41:31.138Z,9.02
2022-10-26T01:44:06.582Z,8.50
2022-10-26T01:46:41.013Z,8.70
2022-10-26T01:49:12.524Z,9.63
2022-10-26T01:51:43.450Z,8.52
2022-10-26T01:54:11.208Z,9.30
2022-10-26T01:56:45.162Z,9.65
2022-10-26T01:59:31.408Z,9.32
2022-10-26T02:02:18.707Z,9.00
2022-10-26T02:04:46.543Z,8.38
2022-10-26T02:07:52.088Z,9.27
2022-10-26T02:10:22.703Z,8.95
2022-10-26T02:13:14.006Z,9.68
2022-10-26T02:15:55.676Z,10.02
2022-10-26T02:18:38.534Z,10.05
2022-10-26T02:21:09.613Z,9.60
2022-10-26T02:23:40.730Z,8.93
2022-10-26T02:26:12.293Z,8.82
2022-10-26T02:28:47.454Z,10.52
2022-10-26T02:31:16.778Z,8.38
2022-10-26T02:36:31.070Z,8.23
2022-10-26T02:38:59.519Z,10.23
2022-10-26T02:41:29.039Z,7.80
2022-10-26T02:44:33.797Z,9.45
2022-10-26T02:47:01.577Z,8.10
2022-10-26T02:49:29.905Z,7.90
2022-10-26T02:52:11.371Z,8.30
2022-10-26T02:54:58.196Z,8.98
2022-10-26T02:57:35.222Z,8.88
2022-10-26T03:00:02.946Z,8.52
2022-10-26T03:02:30.846Z,9.95
2022-10-26T03:05:11.761Z,9.38
2022-10-26T03:07:39.550Z,8.50
2022-10-26T03:10:07.293Z,8.50
2022-10-26T03:12:35.232Z,8.95
2022-10-26T03:15:03.062Z,8.95
2022-10-26T03:17:30.785Z,7.22
2022-10-26T03:19:58.576Z,9.40
2022-10-26T03:22:26.307Z,8.88
2022-10-26T03:24:53.871Z,9.00
2022-10-26T03:27:21.594Z,9.02
2022-10-26T03:29:48.942Z,9.55
2022-10-26T03:32:16.609Z,9.43
2022-10-26T03:34:44.100Z,9.98
2022-10-26T03:37:12.421Z,8.48
2022-10-26T03:39:39.629Z,9.20
2022-10-26T03:42:07.231Z,7.68
2022-10-26T03:44:34.949Z,8.60
2022-10-26T03:47:02.741Z,8.45
2022-10-26T03:49:30.414Z,8.70
2022-10-26T03:51:58.201Z,8.32
2022-10-26T03:54:25.643Z,7.75
2022-10-26T03:56:55.156Z,7.85
2022-10-26T03:59:23.169Z,8.07
2022-10-26T04:01:52.879Z,8.80
2022-10-26T04:04:23.421Z,9.57
2022-10-26T04:07:59.338Z,9.84
2022-10-26T04:10:27.657Z,7.53
2022-10-26T04:12:56.022Z,6.97
2022-10-26T04:15:24.299Z,6.97
2022-10-26T04:18:00.878Z,8.30
2022-10-26T04:20:31.314Z,8.05
2022-10-26T04:23:01.245Z,7.80
2022-10-26T04:25:32.643Z,6.32
2022-10-26T04:28:02.123Z,7.30
2022-10-26T04:30:29.572Z,6.85
2022-10-26T04:32:57.151Z,5.90
2022-10-26T04:35:25.115Z,8.35
2022-10-26T04:37:52.660Z,8.95
2022-10-26T04:40:19.583Z,9.32
2022-10-26T04:42:48.034Z,11.35
2022-10-26T04:45:16.457Z,10.43
2022-10-26T04:47:43.743Z,11.32
2022-10-26T04:50:12.443Z,10.57
2022-10-26T04:52:40.292Z,10.95
2022-10-26T04:55:07.904Z,11.00
2022-10-26T04:57:35.813Z,10.68
2022-10-26T05:00:04.949Z,12.57
2022-10-26T05:02:32.105Z,10.35
2022-10-26T05:04:59.550Z,10.73
2022-10-26T05:07:27.042Z,10.85
2022-10-26T05:09:54.491Z,11.02
2022-10-26T05:12:21.487Z,9.50
2022-10-26T05:14:48.648Z,11.25
2022-10-26T05:17:15.950Z,10.30
2022-10-26T05:19:42.916Z,11.43
2022-10-26T05:22:11.228Z,12.27
2022-10-26T05:24:38.707Z,10.52
2022-10-26T05:27:05.617Z,12.57
2022-10-26T05:29:33.124Z,12.45
2022-10-26T05:32:00.427Z,10.88
2022-10-26T05:34:27.944Z,11.00
2022-10-26T05:36:55.403Z,12.07
2022-10-26T05:39:22.564Z,11.43
2022-10-26T05:41:49.924Z,10.95
2022-10-26T05:44:17.221Z,12.52
2022-10-26T05:46:44.762Z,11.70
2022-10-26T05:49:11.789Z,11.32
2022-10-26T05:51:39.696Z,11.82
2022-10-26T05:54:08.341Z,11.93
2022-10-26T05:56:40.391Z,11.25
2022-10-26T05:59:16.180Z,11.57
2022-10-26T06:01:46.411Z,11.50
2022-10-26T06:04:36.153Z,12.77
2022-10-26T06:07:04.863Z,11.45
2022-10-26T06:09:32.227Z,12.07
2022-10-26T06:12:01.805Z,11.07
2022-10-26T06:14:29.351Z,10.98
2022-10-26T06:17:08.484Z,11.70
2022-10-26T06:19:57.935Z,10.27
2022-10-26T06:23:00.598Z,10.18
2022-10-26T06:25:51.845Z,10.40
2022-10-26T06:28:38.995Z,9.68
2022-10-26T06:31:06.459Z,10.48
2022-10-26T06:33:34.239Z,8.95
2022-10-26T06:36:24.837Z,11.85
2022-10-26T06:39:01.467Z,11.90
2022-10-26T06:41:30.965Z,10.80
2022-10-26T06:43:58.427Z,10.00
2022-10-26T06:46:43.537Z,11.27
2022-10-26T06:49:17.000Z,11.13
2022-10-26T06:51:52.587Z,11.35
2022-10-26T06:54:33.214Z,10.63
2022-10-26T06:57:01.069Z,11.40
2022-10-26T06:59:38.837Z,12.02
2022-10-26T07:02:06.811Z,11.60
2022-10-26T07:04:34.548Z,11.40
2022-10-26T07:07:02.082Z,10.60
2022-10-26T07:09:29.459Z,10.95
2022-10-26T07:11:56.830Z,10.90
2022-10-26T07:14:24.359Z,10.45
2022-10-26T07:16:51.676Z,11.00
2022-10-26T07:19:18.893Z,11.07
2022-10-26T07:21:46.461Z,11.73
2022-10-26T07:24:13.431Z,10.77
2022-10-26T07:26:40.536Z,10.60
2022-10-26T07:29:07.499Z,10.45
2022-10-26T07:31:34.409Z,11.15
2022-10-26T07:34:01.794Z,10.75
2022-10-26T07:36:29.912Z,10.77
2022-10-26T07:38:57.062Z,10.80
2022-10-26T07:41:24.174Z,9.68
2022-10-26T07:43:51.513Z,10.10
2022-10-26T07:46:18.895Z,10.05
2022-10-26T07:48:45.946Z,10.68
2022-10-26T07:51:13.753Z,10.00
2022-10-26T07:53:40.938Z,9.55
2022-10-26T07:56:09.786Z,9.52
2022-10-26T07:58:36.864Z,9.77
2022-10-26T08:01:14.714Z,9.27
2022-10-26T08:03:42.237Z,9.27
2022-10-26T08:06:13.025Z,10.38
2022-10-26T08:08:44.859Z,10.48
2022-10-26T08:11:15.798Z,9.60
2022-10-26T08:13:43.418Z,8.57
2022-10-26T08:16:11.538Z,9.43
2022-10-26T08:18:39.164Z,9.57
2022-10-26T08:21:13.704Z,8.93
2022-10-26T08:23:43.132Z,8.77
2022-10-26T08:26:13.374Z,10.30
2022-10-26T08:28:40.848Z,9.20
2022-10-26T08:31:08.310Z,8.75
2022-10-26T08:33:35.214Z,8.65
2022-10-26T08:36:04.271Z,9.23
2022-10-26T08:38:33.848Z,9.10
2022-10-26T08:41:09.213Z,8.80
2022-10-26T08:43:49.949Z,8.40
2022-10-26T08:46:21.539Z,8.43
2022-10-26T08:48:54.313Z,7.90
2022-10-26T08:51:26.230Z,8.52
2022-10-26T08:54:05.944Z,8.88
2022-10-26T08:56:47.166Z,7.95
2022-10-26T08:59:40.827Z,8.18
2022-10-26T09:02:18.746Z,8.40
2022-10-26T09:04:46.354Z,7.68
2022-10-26T09:07:19.496Z,7.28
2022-10-26T09:10:08.598Z,7.32
2022-10-26T09:12:59.519Z,7.15
2022-10-26T09:15:45.811Z,7.00
2022-10-26T09:18:39.507Z,6.53
2022-10-26T09:21:17.157Z,6.53
2022-10-26T09:24:00.561Z,6.70
2022-10-26T09:26:39.073Z,7.32
2022-10-26T09:29:14.159Z,5.90
2022-10-26T09:31:44.997Z,6.47
2022-10-26T09:34:20.055Z,6.15
2022-10-26T09:36:47.486Z,5.88
2022-10-26T09:39:30.303Z,5.53
2022-10-26T09:42:13.129Z,5.32
2022-10-26T09:44:56.203Z,5.88
2022-10-26T09:47:51.305Z,5.28
2022-10-26T09:50:27.329Z,5.38
2022-10-26T09:52:54.455Z,5.40
2022-10-26T09:55:22.870Z,5.53
2022-10-26T09:57:52.900Z,5.47
2022-10-26T10:00:22.385Z,5.47
2022-10-26T10:02:57.940Z,5.90
2022-10-26T10:08:18.508Z,5.30
2022-10-26T10:10:54.305Z,5.25
2022-10-26T10:13:25.922Z,5.35
2022-10-26T10:16:27.169Z,5.28
2022-10-26T10:18:57.600Z,5.90
2022-10-26T10:21:45.466Z,5.25
2022-10-26T10:24:34.978Z,5.35
2022-10-26T10:27:16.035Z,5.05
2022-10-26T10:29:49.835Z,5.50
2022-10-26T10:32:24.458Z,5.93
2022-10-26T10:34:55.961Z,4.85
2022-10-26T10:37:33.511Z,5.20
2022-10-26T10:40:08.475Z,6.45
2022-10-26T10:42:38.322Z,4.88
2022-10-26T10:45:07.744Z,4.60
2022-10-26T10:47:36.826Z,4.70
2022-10-26T10:50:15.695Z,4.85
2022-10-26T10:52:43.388Z,4.90
2022-10-26T10:55:13.902Z,4.25
2022-10-26T10:58:00.498Z,4.40
2022-10-26T11:00:28.066Z,4.45
2022-10-26T11:03:19.983Z,3.67
2022-10-26T11:06:04.624Z,3.95
2022-10-26T11:08:53.971Z,3.97
2022-10-26T11:11:21.253Z,3.88
2022-10-26T11:14:06.558Z,3.78
2022-10-26T11:16:47.096Z,3.10
2022-10-26T11:19:29.291Z,1.92
2022-10-26T11:21:57.480Z,1.88
2022-10-26T11:24:32.098Z,1.55
2022-10-26T11:27:05.946Z,1.85
2022-10-26T11:29:50.754Z,1.95
2022-10-26T11:32:34.553Z,1.83
2022-10-26T11:35:11.060Z,2.00
2022-10-26T11:38:18.052Z,2.00
2022-10-26T11:40:58.906Z,1.98
2022-10-26T11:43:43.655Z,1.95
2022-10-26T11:46:20.296Z,1.70
2022-10-26T11:49:16.872Z,2.55
2022-10-26T11:51:56.054Z,2.20
2022-10-26T11:54:41.166Z,2.10
2022-10-26T11:57:11.051Z,2.25
2022-10-26T11:59:45.664Z,2.40
2022-10-26T12:02:18.325Z,2.30
2022-10-26T12:04:49.895Z,2.83
2022-10-26T12:07:28.952Z,3.20
2022-10-26T12:10:03.859Z,2.58
2022-10-26T12:12:39.129Z,2.35
2022-10-26T12:15:30.756Z,2.10
2022-10-26T12:18:56.577Z,2.50
2022-10-26T12:21:27.791Z,2.55
2022-10-26T12:23:54.949Z,2.38
2022-10-26T12:26:40.076Z,2.28
2022-10-26T12:29:07.563Z,2.00
2022-10-26T12:31:37.654Z,2.10
2022-10-26T12:34:10.913Z,2.20
2022-10-26T12:37:07.484Z,1.90
2022-10-26T12:39:40.485Z,2.10
2022-10-26T12:42:10.594Z,2.20
2022-10-26T12:44:41.295Z,2.50
2022-10-26T12:47:10.150Z,2.50
2022-10-26T12:50:19.829Z,2.40
2022-10-26T12:52:47.575Z,2.08
2022-10-26T12:55:34.030Z,2.17
2022-10-26T12:58:19.671Z,2.00
2022-10-26T13:00:58.095Z,1.77
2022-10-26T13:03:45.558Z,2.05
2022-10-26T13:06:33.785Z,2.00
2022-10-26T13:11:41.596Z,1.50
2022-10-26T13:14:26.069Z,3.00
2022-10-26T13:16:53.852Z,1.90
2022-10-26T13:19:43.033Z,1.98
2022-10-26T13:22:20.128Z,1.80
2022-10-26T13:25:01.900Z,2.03
2022-10-26T13:27:35.367Z,2.10
2022-10-26T13:30:05.512Z,2.05
2022-10-26T13:32:40.096Z,1.98
2022-10-26T13:35:15.035Z,1.85
2022-10-26T13:37:47.461Z,2.42
2022-10-26T13:40:18.624Z,1.90
2022-10-26T13:43:07.138Z,1.92
2022-10-26T13:48:27.326Z,1.90
2022-10-26T13:53:51.759Z,1.80
2022-10-26T13:56:22.013Z,1.70
2022-10-26T13:58:55.431Z,1.90
2022-10-26T14:01:26.372Z,2.22
2022-10-26T14:03:54.353Z,1.63
2022-10-26T14:10:01.648Z,1.83
2022-10-26T14:12:43.839Z,1.48
2022-10-26T14:15:32.931Z,1.50
2022-10-26T14:21:51.840Z,1.33
2022-10-26T14:24:50.034Z,1.60
2022-10-26T14:27:38.160Z,1.55
2022-10-26T14:30:29.193Z,1.63
2022-10-26T14:33:17.351Z,1.60
2022-10-26T14:35:52.090Z,1.55
2022-10-26T14:38:30.309Z,1.60
2022-10-26T14:40:58.534Z,1.73
2022-10-26T14:43:27.645Z,1.52
2022-10-26T14:45:56.973Z,1.85
2022-10-26T14:48:35.014Z,1.30
2022-10-26T14:51:21.399Z,1.40
2022-10-26T14:53:53.725Z,1.90
2022-10-26T14:56:36.460Z,2.05
2022-10-26T14:59:32.001Z,1.90
2022-10-26T15:04:41.158Z,2.13
2022-10-26T15:07:37.018Z,2.20
2022-10-26T15:10:29.691Z,2.17
2022-10-26T15:13:31.472Z,2.75
2022-10-26T15:16:18.610Z,1.80
2022-10-26T15:19:06.670Z,2.08
2022-10-26T15:25:21.475Z,2.38
2022-10-26T15:28:37.198Z,2.45
2022-10-26T15:31:06.263Z,3.20
2022-10-26T15:33:39.026Z,2.90
2022-10-26T15:36:26.362Z,3.20
2022-10-26T15:39:03.654Z,4.03
2022-10-26T15:42:11.408Z,3.83
2022-10-26T15:44:39.446Z,3.72
2022-10-26T15:47:24.470Z,3.58
2022-10-26T15:49:53.534Z,4.05
2022-10-26T15:52:22.826Z,3.88
2022-10-26T15:54:50.559Z,3.65
2022-10-26T15:57:27.186Z,3.30
2022-10-26T15:59:57.889Z,3.42
2022-10-26T16:02:28.640Z,2.83
2022-10-26T16:04:56.734Z,3.35
2022-10-26T16:07:29.965Z,2.80
2022-10-26T16:10:15.570Z,2.80
2022-10-26T16:12:55.301Z,2.60
2022-10-26T16:15:49.709Z,2.40
2022-10-26T16:18:31.391Z,1.90
2022-10-26T16:21:23.155Z,1.70
2022-10-26T16:23:57.196Z,2.08
2022-10-26T16:26:25.084Z,2.30
2022-10-26T16:28:53.200Z,1.63
2022-10-26T16:31:26.010Z,2.10
2022-10-26T16:34:00.268Z,2.00
2022-10-26T16:36:56.951Z,1.75
2022-10-26T16:39:27.518Z,1.88
2022-10-26T16:41:58.881Z,1.98
2022-10-26T16:44:32.518Z,2.03
2022-10-26T16:47:00.513Z,1.67
2022-10-26T16:49:29.392Z,1.95
2022-10-26T16:51:57.679Z,1.88
2022-10-26T16:54:31.058Z,1.90
2022-10-26T16:57:01.289Z,1.90
2022-10-26T16:59:29.703Z,2.10
2022-10-26T17:01:57.816Z,2.30
2022-10-26T17:04:32.494Z,2.42
2022-10-26T17:07:00.307Z,2.05
2022-10-26T17:09:35.066Z,2.22
2022-10-26T17:12:03.331Z,2.10
2022-10-26T17:14:42.007Z,2.00
2022-10-26T17:17:10.850Z,1.90
2022-10-26T17:19:38.898Z,1.70
2022-10-26T17:22:08.777Z,2.28
2022-10-26T17:24:36.374Z,2.10
2022-10-26T17:27:03.891Z,2.10
2022-10-26T17:29:31.362Z,1.88
2022-10-26T17:31:58.687Z,1.75
2022-10-26T17:34:25.987Z,2.20
2022-10-26T17:36:53.380Z,1.90
2022-10-26T17:39:20.947Z,2.20
2022-10-26T17:41:54.507Z,2.20
2022-10-26T17:44:24.667Z,2.63
2022-10-26T17:46:52.175Z,2.47
2022-10-26T17:49:24.791Z,1.83
2022-10-26T17:51:54.866Z,2.17
2022-10-26T17:54:26.340Z,1.73
2022-10-26T17:56:54.164Z,2.53
2022-10-26T17:59:27.397Z,2.15
2022-10-26T18:01:55.706Z,2.20
2022-10-26T18:04:24.015Z,2.15
2022-10-26T18:06:53.755Z,2.72
2022-10-26T18:09:28.852Z,2.67
2022-10-26T18:12:02.912Z,2.42
2022-10-26T18:14:38.624Z,3.00
2022-10-26T18:17:12.652Z,2.03
2022-10-26T18:19:45.435Z,2.65
2022-10-26T18:22:17.596Z,2.50
2022-10-26T18:25:05.687Z,2.65
2022-10-26T18:27:51.311Z,2.55
2022-10-26T18:30:18.819Z,2.30
2022-10-26T18:32:48.394Z,2.30
2022-10-26T18:35:16.855Z,2.47
2022-10-26T18:37:44.636Z,2.90
2022-10-26T18:40:12.816Z,2.33
2022-10-26T18:42:40.284Z,2.33
2022-10-26T18:45:07.890Z,2.63
2022-10-26T18:47:35.604Z,2.60
2022-10-26T18:50:03.279Z,2.53
2022-10-26T18:52:30.900Z,2.30
2022-10-26T18:54:58.964Z,2.53
2022-10-26T18:57:28.494Z,2.65
2022-10-26T19:00:19.153Z,2.83
2022-10-26T19:02:51.507Z,2.50
2022-10-26T19:05:22.569Z,2.53
2022-10-26T19:07:52.828Z,3.15
2022-10-26T19:10:48.573Z,2.72
2022-10-26T19:13:41.121Z,2.55
2022-10-26T19:16:33.561Z,2.92
2022-10-26T19:19:34.831Z,3.10
2022-10-26T19:22:02.856Z,2.00
2022-10-26T19:24:34.548Z,2.13
2022-10-26T19:27:02.743Z,2.65
2022-10-26T19:29:30.140Z,2.90
2022-10-26T19:31:57.910Z,2.40
2022-10-26T19:34:26.121Z,2.33
2022-10-26T19:36:53.692Z,2.40
2022-10-26T19:39:22.600Z,2.40
2022-10-26T19:41:50.106Z,2.80
2022-10-26T19:44:17.368Z,2.22
2022-10-26T19:46:47.369Z,2.17
2022-10-26T19:49:18.436Z,2.35
2022-10-26T19:51:48.217Z,2.40
2022-10-26T19:54:16.320Z,2.78
2022-10-26T19:56:43.717Z,2.45
2022-10-26T19:59:11.439Z,3.03
2022-10-26T20:01:42.916Z,2.83
2022-10-26T20:04:26.232Z,2.38
2022-10-26T20:06:57.155Z,2.72
2022-10-26T20:09:36.267Z,2.33
2022-10-26T20:12:26.043Z,3.63
2022-10-26T20:14:54.243Z,2.50
2022-10-26T20:17:23.974Z,2.40
2022-10-26T20:19:55.937Z,2.38
2022-10-26T20:22:24.052Z,2.53
2022-10-26T20:24:51.618Z,2.83
2022-10-26T20:27:18.947Z,3.10
2022-10-26T20:29:46.615Z,2.70
2022-10-26T20:32:15.382Z,3.17
2022-10-26T20:34:45.475Z,2.83
2022-10-26T20:37:14.056Z,3.10
2022-10-26T20:39:41.496Z,3.10
2022-10-26T20:42:24.267Z,3.30
2022-10-26T20:45:01.246Z,3.83
2022-10-26T20:47:29.001Z,3.13
2022-10-26T20:49:56.769Z,3.42
2022-10-26T20:52:36.394Z,3.67
2022-10-26T20:55:03.814Z,3.35
2022-10-26T20:57:35.217Z,2.90
2022-10-26T21:00:10.534Z,3.90
2022-10-26T21:02:37.909Z,3.25
2022-10-26T21:05:05.717Z,3.50
2022-10-26T21:07:33.088Z,3.70
2022-10-26T21:10:00.832Z,3.53
2022-10-26T21:12:28.167Z,3.80
2022-10-26T21:14:55.718Z,3.88
2022-10-26T21:17:23.596Z,3.30
2022-10-26T21:19:50.955Z,4.20
2022-10-26T21:22:18.482Z,4.22
2022-10-26T21:24:46.031Z,4.53
2022-10-26T21:27:13.217Z,4.18
2022-10-26T21:29:40.674Z,4.78
2022-10-26T21:32:08.242Z,4.82
2022-10-26T21:34:35.827Z,4.85
2022-10-26T21:37:03.261Z,4.60
2022-10-26T21:39:30.946Z,4.28
2022-10-26T21:41:58.473Z,4.60
2022-10-26T21:44:40.522Z,4.75
2022-10-26T21:47:09.386Z,3.90
2022-10-26T21:49:37.133Z,4.53
2022-10-26T21:52:04.633Z,4.60
2022-10-26T21:54:31.755Z,4.72
2022-10-26T21:56:59.466Z,4.25
2022-10-26T21:59:26.934Z,4.13
2022-10-26T22:01:54.678Z,4.00
2022-10-26T22:04:22.806Z,5.00
2022-10-26T22:07:08.877Z,4.72
2022-10-26T22:09:49.340Z,4.45
2022-10-26T22:12:25.916Z,4.45
2022-10-26T22:15:03.422Z,4.15
2022-10-26T22:17:31.480Z,5.07
2022-10-26T22:20:05.557Z,4.40
2022-10-26T22:22:39.799Z,4.72
2022-10-26T22:25:07.421Z,5.07
2022-10-26T22:27:34.894Z,5.50
2022-10-26T22:30:03.114Z,4.72
2022-10-26T22:32:33.614Z,5.25
2022-10-26T22:37:48.542Z,5.70
2022-10-26T22:40:15.703Z,5.38
2022-10-26T22:42:43.201Z,5.53
2022-10-26T22:45:13.888Z,6.45
2022-10-26T22:47:41.088Z,5.43
2022-10-26T22:50:08.584Z,5.22
2022-10-26T22:52:39.495Z,5.63
2022-10-26T22:55:08.710Z,6.72
2022-10-26T22:57:36.331Z,5.35
2022-10-26T23:00:07.731Z,5.88
2022-10-26T23:02:35.439Z,6.85
2022-10-26T23:05:03.276Z,6.63
2022-10-26T23:07:31.975Z,7.30
2022-10-26T23:09:59.780Z,7.20
2022-10-26T23:12:26.783Z,7.03
2022-10-26T23:14:53.803Z,7.28
2022-10-26T23:17:21.069Z,7.38
2022-10-26T23:19:48.651Z,7.22
2022-10-26T23:22:16.253Z,6.93
2022-10-26T23:24:43.343Z,7.63
2022-10-26T23:27:10.898Z,8.27
2022-10-26T23:29:38.489Z,8.68
2022-10-26T23:32:05.756Z,7.57
2022-10-26T23:34:32.786Z,8.20
2022-10-26T23:37:00.026Z,8.05
2022-10-26T23:39:27.057Z,8.80
2022-10-26T23:41:54.484Z,8.48
2022-10-26T23:44:22.043Z,8.85
2022-10-26T23:46:49.070Z,8.40
2022-10-26T23:49:16.667Z,9.02
2022-10-26T23:51:44.136Z,8.80
2022-10-26T23:54:11.591Z,8.20
2022-10-26T23:56:39.120Z,8.60
2022-10-26T23:59:08.818Z,8.10
